Time;durP1;ratioP1;P1;durP2;ratioP2;P2;SDS_P1;SDS_P2;PMS_P1;PMS_P2;Temp;Humidity;BMP_temperature;BMP_pressure;BME280_temperature;BME280_humidity;BME280_pressure;Samples;Min_cycle;Max_cycle;Signal;HPM_P1;HPM_P2
2021/06/22 00:02:53;;;;;;;8.33;2.90;;;;;;;23.15;64.25;97396.56;8318484;28;20247;-65
2021/06/22 00:06:57;;;;;;;6.80;2.80;;;;;;;23.05;65.43;97395.84;8319392;28;20251;-65
2021/06/22 00:11:00;;;;;;;6.47;3.07;;;;;;;23.17;64.78;97393.72;8320204;28;20259;-65
2021/06/22 00:15:04;;;;;;;10.60;3.20;;;;;;;23.13;64.67;97390.59;8320063;28;20204;-65
2021/06/22 00:19:07;;;;;;;6.57;2.80;;;;;;;23.27;63.91;97393.59;8319829;28;20236;-65
2021/06/22 00:23:11;;;;;;;7.53;2.90;;;;;;;23.32;63.33;97399.22;8319715;28;20480;-65
2021/06/22 00:27:14;;;;;;;9.37;3.00;;;;;;;23.28;63.21;97389.97;8318820;28;20369;-64
2021/06/22 00:31:18;;;;;;;5.93;2.80;;;;;;;23.22;63.57;97379.03;8319436;28;20211;-65
2021/06/22 00:35:21;;;;;;;7.40;2.80;;;;;;;23.21;63.37;97373.94;8295833;28;20208;-65
2021/06/22 00:39:25;;;;;;;6.50;2.77;;;;;;;23.16;63.33;97371.78;8286157;28;20396;-64
2021/06/22 00:43:30;;;;;;;8.67;2.70;;;;;;;23.09;64.28;97365.47;8286141;28;20313;-65
2021/06/22 00:47:33;;;;;;;6.53;2.80;;;;;;;23.08;63.44;97350.63;8286101;28;20206;-64
2021/06/22 00:51:36;;;;;;;5.80;2.77;;;;;;;23.07;63.22;97367.47;8285906;28;20285;-65
2021/06/22 00:55:40;;;;;;;4.63;2.50;;;;;;;23.05;63.43;97368.63;8285816;28;20209;-65
2021/06/22 00:59:56;;;;;;;7.47;2.67;;;;;;;22.95;63.10;97372.19;8286074;28;20298;-65
2021/06/22 01:03:59;;;;;;;5.60;2.47;;;;;;;22.95;62.95;97377.47;8302516;28;20211;-64
2021/06/22 01:08:02;;;;;;;6.03;2.60;;;;;;;22.88;62.67;97373.81;8317652;28;20232;-65
2021/06/22 01:12:08;;;;;;;6.33;2.50;;;;;;;22.83;63.01;97376.13;8317669;28;20244;-65
2021/06/22 01:16:21;;;;;;;6.00;2.90;;;;;;;22.77;62.62;97363.53;8317644;28;20228;-64
2021/06/22 01:20:30;;;;;;;7.83;3.10;;;;;;;22.66;63.38;97364.69;8317715;28;20273;-64
2021/06/22 01:24:34;;;;;;;6.90;2.60;;;;;;;22.64;63.25;97364.00;8317417;28;20211;-63
2021/06/22 01:28:37;;;;;;;10.53;3.30;;;;;;;22.61;63.29;97359.03;8317380;28;20231;-64
2021/06/22 01:32:40;;;;;;;5.53;2.53;;;;;;;22.72;63.00;97369.31;8317155;28;20208;-63
2021/06/22 01:36:42;;;;;;;6.97;2.60;;;;;;;22.61;63.44;97369.59;8316791;28;20228;-64
2021/06/22 01:40:48;;;;;;;8.20;2.93;;;;;;;22.55;63.17;97389.53;8316962;28;20203;-63
2021/06/22 01:44:53;;;;;;;5.23;3.00;;;;;;;22.51;63.16;97377.63;8316775;28;20203;-63
2021/06/22 02:05:04;;;;;;;3.70;2.70;;;;;;;22.30;63.14;97388.56;8316826;28;20208;-64
2021/06/22 02:09:07;;;;;;;7.40;3.10;;;;;;;22.23;63.15;97392.78;8316668;28;20243;-64
2021/06/22 02:13:10;;;;;;;9.03;3.40;;;;;;;22.18;62.63;97389.75;8316848;28;20215;-63
2021/06/22 02:17:13;;;;;;;6.93;3.10;;;;;;;22.18;62.56;97387.97;8316623;28;20232;-63
2021/06/22 02:21:17;;;;;;;9.23;3.20;;;;;;;22.13;63.12;97384.16;8316647;28;20401;-63
2021/06/22 02:25:20;;;;;;;10.60;3.20;;;;;;;22.20;62.21;97374.63;8316632;28;20514;-63
2021/06/22 02:29:24;;;;;;;10.03;3.30;;;;;;;22.13;62.24;97373.59;8316670;28;20192;-63
2021/06/22 02:33:27;;;;;;;7.37;3.33;;;;;;;22.05;62.79;97371.75;8316580;28;20207;-63
2021/06/22 02:37:31;;;;;;;8.93;3.57;;;;;;;22.05;62.39;97382.28;8316491;28;20414;-64
2021/06/22 02:41:34;;;;;;;6.93;3.53;;;;;;;21.97;62.85;97385.69;8316306;28;20387;-63
2021/06/22 02:45:37;;;;;;;7.37;3.37;;;;;;;22.01;62.56;97400.22;8315887;28;20219;-63
2021/06/22 02:49:40;;;;;;;7.37;3.13;;;;;;;22.01;62.66;97396.75;8320405;28;20503;-63
2021/06/22 02:53:44;;;;;;;7.27;3.50;;;;;;;21.89;62.18;97398.78;8326864;28;20380;-64
2021/06/22 02:57:49;;;;;;;6.90;3.40;;;;;;;21.77;62.85;97392.13;8326670;28;20230;-63
2021/06/22 03:01:52;;;;;;;6.00;3.23;;;;;;;21.83;62.86;97394.13;8326680;28;20203;-63
2021/06/22 03:05:55;;;;;;;6.30;3.87;;;;;;;21.74;63.01;97392.41;8326684;28;20229;-63
2021/06/22 03:09:59;;;;;;;10.03;3.63;;;;;;;21.88;62.14;97397.16;8326581;28;20228;-63
2021/06/22 03:14:02;;;;;;;10.63;3.63;;;;;;;21.71;63.14;97409.38;8326555;28;20211;-63
2021/06/22 03:18:05;;;;;;;9.47;3.20;;;;;;;21.69;62.39;97400.78;8326418;28;20236;-63
2021/06/22 03:22:07;;;;;;;7.87;3.80;;;;;;;21.56;62.99;97406.44;8326432;28;20209;-63
2021/06/22 03:26:13;;;;;;;8.13;3.77;;;;;;;21.55;62.81;97402.16;8326400;28;20210;-63
2021/06/22 03:30:16;;;;;;;8.10;3.83;;;;;;;21.60;62.90;97404.31;8326960;28;20211;-63
2021/06/22 03:34:19;;;;;;;8.60;3.67;;;;;;;21.60;62.32;97413.06;8327139;28;20207;-63
2021/06/22 03:38:22;;;;;;;10.47;3.70;;;;;;;21.51;62.79;97421.84;8326290;28;20298;-63
2021/06/22 03:42:26;;;;;;;7.47;3.80;;;;;;;21.59;62.57;97426.38;8326128;28;20201;-63
2021/06/22 03:46:29;;;;;;;8.90;3.80;;;;;;;21.53;62.70;97421.72;8326014;28;20202;-63
2021/06/22 03:50:32;;;;;;;6.80;3.67;;;;;;;21.52;62.61;97413.00;8326067;28;20205;-63
2021/06/22 03:54:35;;;;;;;9.33;3.90;;;;;;;21.58;62.41;97414.19;8326419;28;20200;-64
2021/06/22 03:58:39;;;;;;;12.97;4.30;;;;;;;21.70;62.04;97418.25;8326052;28;20524;-63
2021/06/22 04:02:42;;;;;;;13.63;3.80;;;;;;;21.62;62.11;97413.72;8320457;28;20297;-64
2021/06/22 04:06:45;;;;;;;9.53;4.27;;;;;;;21.35;63.01;97411.16;8320182;28;20396;-63
2021/06/22 04:10:48;;;;;;;10.13;4.33;;;;;;;21.42;63.29;97426.19;8320156;28;20238;-63
2021/06/22 04:14:52;;;;;;;10.20;4.50;;;;;;;21.36;62.88;97424.16;8319846;28;20364;-64
2021/06/22 04:18:55;;;;;;;7.77;4.10;;;;;;;21.44;62.95;97423.47;8319507;28;20224;-64
2021/06/22 04:22:57;;;;;;;9.20;4.40;;;;;;;21.41;63.16;97436.88;8320042;28;20203;-64
2021/06/22 04:27:00;;;;;;;9.47;4.13;;;;;;;21.52;63.05;97449.88;8319672;28;20224;-64
2021/06/22 04:31:04;;;;;;;11.23;4.77;;;;;;;21.46;63.24;97463.66;8319958;28;20302;-64
2021/06/22 04:35:08;;;;;;;5.83;4.30;;;;;;;21.50;63.45;97454.47;8319509;28;20216;-64
2021/06/22 04:39:11;;;;;;;11.40;4.97;;;;;;;21.40;63.80;97454.50;8318893;28;20365;-63
2021/06/22 04:43:14;;;;;;;15.23;4.60;;;;;;;21.53;63.96;97464.69;8319250;28;20204;-64
2021/06/22 04:47:18;;;;;;;12.47;4.87;;;;;;;21.66;63.91;97461.69;8319853;28;20213;-64
2021/06/22 04:51:21;;;;;;;7.33;4.30;;;;;;;21.78;63.67;97460.50;8319316;28;20257;-64
2021/06/22 04:55:25;;;;;;;7.60;5.10;;;;;;;21.76;63.63;97459.81;8312078;28;20213;-64
2021/06/22 04:59:28;;;;;;;9.73;5.43;;;;;;;21.88;63.32;97455.16;8316068;28;20583;-64
2021/06/22 05:03:53;;;;;;;9.27;4.60;;;;;;;22.08;63.76;97454.97;8320569;28;20211;-65
2021/06/22 05:07:56;;;;;;;11.07;4.27;;;;;;;22.61;62.06;97457.50;8307096;28;20224;-65
2021/06/22 05:11:58;;;;;;;9.77;5.60;;;;;;;22.60;61.24;97455.03;8290586;28;20563;-66
2021/06/22 05:16:01;;;;;;;10.70;4.63;;;;;;;22.67;61.35;97465.78;8285864;28;20205;-65
2021/06/22 05:20:07;;;;;;;8.27;4.63;;;;;;;22.73;60.69;97459.88;8285417;28;20237;-65
2021/06/22 05:24:11;;;;;;;7.17;4.80;;;;;;;22.81;60.25;97446.72;8285825;28;20417;-66
2021/06/22 05:28:14;;;;;;;8.73;4.83;;;;;;;22.90;59.32;97445.75;8284949;28;20213;-66
2021/06/22 05:32:17;;;;;;;24.30;5.30;;;;;;;22.74;60.24;97450.97;8285014;28;20216;-65
2021/06/22 05:36:21;;;;;;;10.30;4.80;;;;;;;22.86;59.64;97452.34;8285299;28;20215;-66
2021/06/22 05:40:24;;;;;;;7.63;6.20;;;;;;;22.60;59.74;97455.03;8284542;28;20228;-63
2021/06/22 05:44:27;;;;;;;9.17;6.40;;;;;;;22.40;60.20;97463.13;8284342;28;20208;-64
2021/06/22 05:48:30;;;;;;;8.53;6.27;;;;;;;22.22;60.84;97473.72;8284287;28;20501;-64
2021/06/22 05:52:34;;;;;;;11.23;6.50;;;;;;;22.23;60.96;97482.44;8284134;28;20212;-64
2021/06/22 05:56:37;;;;;;;8.30;6.27;;;;;;;22.27;60.88;97478.53;8284232;28;20231;-64
2021/06/22 06:00:40;;;;;;;10.60;6.13;;;;;;;22.60;60.19;97484.88;8284615;28;20569;-64
2021/06/22 06:04:43;;;;;;;10.90;6.50;;;;;;;22.86;59.71;97488.47;8307300;28;20211;-64
2021/06/22 06:08:47;;;;;;;6.87;5.80;;;;;;;23.25;59.01;97483.56;8316709;28;20234;-64
2021/06/22 06:12:50;;;;;;;10.13;6.50;;;;;;;23.17;59.20;97478.25;8317093;28;20204;-64
2021/06/22 06:16:53;;;;;;;7.93;5.90;;;;;;;23.27;58.64;97484.22;8316770;28;20208;-64
2021/06/22 06:20:57;;;;;;;9.43;4.80;;;;;;;23.39;57.59;97485.56;8316554;28;20292;-65
2021/06/22 06:25:04;;;;;;;5.97;5.30;;;;;;;23.66;56.65;97480.19;8315865;28;20214;-65
2021/06/22 06:29:13;;;;;;;8.13;5.40;;;;;;;23.68;55.81;97494.06;8316774;28;20291;-65
2021/06/22 06:33:16;;;;;;;11.57;5.70;;;;;;;23.61;57.15;97500.03;8316772;28;20201;-65
2021/06/22 06:37:19;;;;;;;6.63;5.00;;;;;;;23.70;56.54;97497.38;8316317;28;20212;-65
2021/06/22 06:41:23;;;;;;;6.93;5.60;;;;;;;23.55;56.93;97507.75;8316248;28;20231;-65
2021/06/22 06:45:25;;;;;;;7.07;5.57;;;;;;;23.53;56.71;97513.22;8316232;28;20208;-65
2021/06/22 06:49:29;;;;;;;8.20;5.73;;;;;;;23.75;56.41;97516.22;8316295;28;20492;-65
2021/06/22 06:53:32;;;;;;;10.20;7.70;;;;;;;23.62;57.08;97519.34;8315269;28;20215;-65
2021/06/22 06:57:36;;;;;;;12.87;6.83;;;;;;;23.78;56.58;97513.28;8315381;28;20203;-65
2021/06/22 07:01:39;;;;;;;7.80;6.47;;;;;;;23.99;55.92;97513.66;8309136;28;20228;-65
2021/06/22 07:05:41;;;;;;;7.43;6.30;;;;;;;24.34;55.07;97513.50;8314971;28;20286;-65
2021/06/22 07:09:44;;;;;;;10.17;7.23;;;;;;;24.15;55.93;97523.41;8314809;28;20248;-65
2021/06/22 07:13:48;;;;;;;7.20;6.50;;;;;;;24.15;55.73;97518.13;8315026;28;20216;-65
2021/06/22 07:17:52;;;;;;;9.37;5.87;;;;;;;24.14;56.18;97516.50;8315006;28;20201;-65
2021/06/22 07:21:54;;;;;;;12.20;6.63;;;;;;;24.10;55.76;97512.50;8314766;28;20235;-65
2021/06/22 07:25:57;;;;;;;9.10;6.80;;;;;;;24.18;54.89;97514.34;8315002;28;20209;-65
2021/06/22 07:30:02;;;;;;;10.00;7.73;;;;;;;24.22;55.68;97518.31;8315243;28;20209;-65
2021/06/22 07:34:05;;;;;;;11.27;6.90;;;;;;;24.19;55.22;97519.44;8303506;28;20198;-65
2021/06/22 07:38:08;;;;;;;11.10;7.00;;;;;;;24.33;54.74;97525.06;8288007;28;20224;-65
2021/06/22 07:42:11;;;;;;;9.60;7.50;;;;;;;24.31;54.58;97522.59;8288494;28;20524;-65
2021/06/22 07:46:16;;;;;;;8.87;7.70;;;;;;;24.25;55.51;97523.25;8288606;28;20485;-65
2021/06/22 07:50:19;;;;;;;9.83;6.67;;;;;;;24.33;55.26;97523.28;8288625;28;20269;-65
2021/06/22 07:54:21;;;;;;;9.10;7.13;;;;;;;23.93;54.87;97514.31;8288837;28;20202;-65
2021/06/22 07:58:24;;;;;;;6.67;6.00;;;;;;;24.10;55.22;97519.59;8288438;28;20211;-65
2021/06/22 08:02:28;;;;;;;8.13;7.17;;;;;;;23.88;56.09;97521.91;8292232;28;20201;-65
2021/06/22 08:06:32;;;;;;;8.40;6.50;;;;;;;24.09;55.22;97525.91;8320452;28;20228;-65
2021/06/22 08:10:35;;;;;;;8.60;6.30;;;;;;;24.10;54.94;97525.72;8320098;28;20241;-65
2021/06/22 08:14:40;;;;;;;15.47;6.90;;;;;;;23.91;56.01;97526.03;8336064;28;20200;-64
2021/06/22 08:18:44;;;;;;;9.17;7.17;;;;;;;23.83;55.98;97526.03;8352817;28;20441;-64
2021/06/22 08:22:52;;;;;;;9.53;6.50;;;;;;;24.00;55.85;97531.16;8352946;28;20363;-64
2021/06/22 08:26:55;;;;;;;8.80;7.90;;;;;;;24.02;54.94;97527.53;8353143;28;20387;-64
2021/06/22 08:30:57;;;;;;;10.87;7.53;;;;;;;24.09;54.97;97539.13;8339989;28;20212;-64
2021/06/22 08:35:02;;;;;;;10.70;7.50;;;;;;;24.28;54.58;97546.75;8319700;28;20406;-64
2021/06/22 08:39:05;;;;;;;9.83;8.10;;;;;;;23.89;55.30;97543.88;8319271;28;20257;-64
2021/06/22 08:43:10;;;;;;;12.10;7.60;;;;;;;23.91;56.13;97544.53;8318908;28;20220;-64
2021/06/22 08:47:13;;;;;;;19.33;7.57;;;;;;;24.04;55.88;97541.44;8318499;28;20213;-64
2021/06/22 08:51:19;;;;;;;8.87;7.70;;;;;;;24.05;55.48;97548.38;8318590;28;20205;-64
2021/06/22 08:55:29;;;;;;;13.70;8.30;;;;;;;24.31;55.13;97550.88;8318312;28;20201;-64
2021/06/22 08:59:32;;;;;;;7.53;6.77;;;;;;;24.12;55.44;97554.66;8318040;28;20513;-61
2021/06/22 09:03:35;;;;;;;9.60;6.50;;;;;;;23.87;56.61;97559.09;8317707;28;20216;-61
2021/06/22 09:07:47;;;;;;;8.83;6.73;;;;;;;24.31;55.21;97557.00;8317810;28;20229;-62
2021/06/22 09:12:04;;;;;;;10.60;6.40;;;;;;;24.08;55.16;97561.25;8317626;28;20248;-61
2021/06/22 09:16:08;;;;;;;8.30;5.70;;;;;;;24.15;54.91;97562.28;8318157;28;20215;-61
2021/06/22 09:20:12;;;;;;;6.30;5.70;;;;;;;24.16;55.47;97550.69;8317950;28;20238;-62
2021/06/22 09:24:18;;;;;;;7.60;5.20;;;;;;;24.28;54.69;97552.03;8317643;28;20208;-61
2021/06/22 09:28:24;;;;;;;8.87;5.90;;;;;;;24.30;54.77;97554.53;8317714;28;20394;-61
2021/06/22 09:32:29;;;;;;;8.50;5.77;;;;;;;24.38;54.62;97565.91;8317696;28;20207;-61
2021/06/22 09:36:32;;;;;;;7.27;5.57;;;;;;;24.36;54.38;97567.91;8317238;28;20201;-61
2021/06/22 09:40:36;;;;;;;8.70;5.30;;;;;;;24.35;54.20;97568.06;8317432;28;20235;-61
2021/06/22 09:44:39;;;;;;;11.53;5.60;;;;;;;24.32;54.67;97560.47;8317568;28;20450;-61
2021/06/22 09:48:52;;;;;;;9.93;5.43;;;;;;;24.68;53.47;97560.16;8317131;28;20214;-62
2021/06/22 09:52:55;;;;;;;5.67;5.03;;;;;;;24.77;53.66;97569.75;8316441;28;20208;-61
2021/06/22 09:57:01;;;;;;;7.83;5.80;;;;;;;24.56;54.45;97565.78;8316417;28;20211;-61
2021/06/22 10:01:05;;;;;;;8.07;5.13;;;;;;;24.53;54.57;97574.06;8315253;28;20225;-61
2021/06/22 10:05:08;;;;;;;7.83;5.13;;;;;;;24.46;53.96;97564.28;8315881;28;20276;-61
2021/06/22 10:09:17;;;;;;;9.57;5.40;;;;;;;24.37;54.60;97566.09;8316173;28;20642;-62
2021/06/22 10:13:42;;;;;;;10.00;5.47;;;;;;;24.69;53.31;97554.69;8316131;28;20203;-60
2021/06/22 10:17:46;;;;;;;8.07;5.33;;;;;;;24.73;53.83;97565.75;8316188;28;20206;-62
2021/06/22 10:21:49;;;;;;;8.77;5.43;;;;;;;24.92;52.96;97564.56;8315513;28;20236;-69
2021/06/22 10:25:53;;;;;;;9.73;5.37;;;;;;;24.92;53.85;97565.44;8315892;28;20212;-62
2021/06/22 10:30:00;;;;;;;8.37;5.80;;;;;;;24.92;53.73;97569.88;8315767;28;20210;-62
2021/06/22 10:34:03;;;;;;;9.30;5.93;;;;;;;24.85;52.84;97566.28;8315500;28;20211;-61
2021/06/22 10:38:09;;;;;;;6.30;5.10;;;;;;;24.93;53.04;97567.06;8315056;28;20519;-62
2021/06/22 10:42:13;;;;;;;8.13;4.83;;;;;;;25.12;53.27;97579.09;8315688;28;20220;-62
2021/06/22 10:46:20;;;;;;;13.77;5.23;;;;;;;25.34;52.51;97579.38;8315230;28;20201;-62
2021/06/22 10:50:30;;;;;;;7.27;4.80;;;;;;;25.28;52.23;97582.72;8315412;28;20229;-62
2021/06/22 10:55:06;;;;;;;;;;;;;;;;;;;;;
2021/06/22 10:59:28;;;;;;;6.70;4.37;;;;;;;25.68;51.89;97575.63;8312135;28;20209;-61
2021/06/22 11:03:34;;;;;;;5.30;3.73;;;;;;;26.61;49.91;97574.72;8315586;28;20201;-62
2021/06/22 11:07:37;;;;;;;4.03;3.70;;;;;;;27.38;46.80;97573.63;8308509;28;20237;-62
2021/06/22 11:11:39;;;;;;;5.27;4.00;;;;;;;27.06;47.71;97567.63;8290846;28;20537;-62
2021/06/22 11:15:47;;;;;;;5.83;3.70;;;;;;;27.61;46.59;97564.72;8289287;28;20391;-62
2021/06/22 11:20:07;;;;;;;4.80;3.50;;;;;;;27.82;45.13;97564.75;8288850;28;20420;-65
2021/06/22 11:24:12;;;;;;;3.60;3.23;;;;;;;26.90;46.43;97557.16;8288935;28;20388;-65
2021/06/22 11:28:15;;;;;;;5.63;3.30;;;;;;;27.46;46.54;97562.91;8288477;28;20209;-65
2021/06/22 11:32:36;;;;;;;3.87;3.03;;;;;;;27.21;45.68;97565.00;8288765;28;20211;-65
2021/06/22 11:36:42;;;;;;;7.13;3.17;;;;;;;27.06;47.46;97562.31;8288524;28;20211;-65
2021/06/22 11:41:12;;;;;;;5.27;3.20;;;;;;;26.74;47.43;97554.69;8288378;28;20238;-65
2021/06/22 11:45:22;;;;;;;5.30;2.93;;;;;;;26.57;48.07;97552.16;8287755;28;20211;-64
2021/06/22 11:49:41;;;;;;;4.07;3.17;;;;;;;27.52;46.60;97548.03;8287846;28;20529;-65
2021/06/22 11:53:50;;;;;;;4.67;3.00;;;;;;;27.39;47.37;97554.00;8288282;28;20428;-66
2021/06/22 11:57:54;;;;;;;5.23;2.70;;;;;;;27.47;46.20;97556.59;8288190;28;20204;-65
2021/06/22 12:01:57;;;;;;;6.40;2.90;;;;;;;28.21;44.18;97555.56;8287748;28;20234;-65
2021/06/22 12:06:13;;;;;;;5.60;2.90;;;;;;;28.48;43.77;97553.13;8320096;28;20533;-64
2021/06/22 12:10:19;;;;;;;5.03;2.53;;;;;;;27.57;44.85;97548.31;8320037;28;20242;-65
2021/06/22 12:14:21;;;;;;;5.00;3.10;;;;;;;27.09;45.15;97547.84;8320076;28;20202;-64
2021/06/22 12:18:29;;;;;;;5.23;2.30;;;;;;;27.73;44.44;97546.44;8319642;28;20208;-64
2021/06/22 12:22:31;;;;;;;3.90;2.50;;;;;;;28.39;43.53;97541.00;8318440;28;20240;-60
2021/06/22 12:26:38;;;;;;;5.27;2.70;;;;;;;28.64;43.26;97541.41;8316329;28;20603;-60
2021/06/22 12:30:43;;;;;;;4.27;2.63;;;;;;;28.76;42.18;97544.38;8305106;28;20393;-60
2021/06/22 12:34:46;;;;;;;4.27;2.27;;;;;;;28.92;42.57;97546.75;8319233;28;20356;-60
2021/06/22 12:38:55;;;;;;;5.30;2.30;;;;;;;29.19;43.30;97549.59;8318944;28;20203;-60
2021/06/22 12:42:59;;;;;;;5.33;2.60;;;;;;;29.03;41.32;97543.53;8318765;28;20229;-60
2021/06/22 12:47:06;;;;;;;3.83;2.60;;;;;;;29.04;41.31;97539.84;8318462;28;20205;-60
2021/06/22 12:51:09;;;;;;;7.13;2.57;;;;;;;29.14;42.70;97546.69;8318378;28;20198;-60
2021/06/22 12:55:34;;;;;;;6.93;2.67;;;;;;;28.34;44.89;97544.22;8318316;28;20204;-60
2021/06/22 12:59:46;;;;;;;3.17;2.50;;;;;;;28.78;42.52;97553.81;8318114;28;20274;-60
2021/06/22 13:03:50;;;;;;;5.13;2.30;;;;;;;28.46;43.59;97549.84;8317783;28;20236;-60
2021/06/22 13:08:00;;;;;;;2.87;2.40;;;;;;;29.12;44.28;97552.19;8317545;28;20238;-60
2021/06/22 13:12:05;;;;;;;4.27;2.57;;;;;;;27.93;44.84;97554.66;8317981;28;20234;-60
2021/06/22 13:16:11;;;;;;;3.23;2.50;;;;;;;27.80;44.44;97556.13;8317576;28;20200;-60
2021/06/22 13:20:14;;;;;;;2.80;2.30;;;;;;;28.88;42.87;97552.66;8317540;28;20210;-65
2021/06/22 13:24:44;;;;;;;4.73;2.50;;;;;;;28.00;43.42;97548.38;8317415;28;20277;-65
2021/06/22 13:28:56;;;;;;;5.73;2.40;;;;;;;27.43;45.37;97552.63;8317573;28;20361;-66
2021/06/22 13:33:03;;;;;;;2.23;2.03;;;;;;;28.32;44.11;97546.25;8310965;28;20316;-65
2021/06/22 13:37:06;;;;;;;4.37;2.17;;;;;;;28.78;42.63;97553.00;8295133;28;20201;-65
2021/06/22 13:41:16;;;;;;;4.93;2.00;;;;;;;29.27;42.44;97554.75;8284985;28;20418;-65
2021/06/22 13:45:19;;;;;;;4.00;2.03;;;;;;;29.11;40.97;97555.03;8284718;28;20395;-65
2021/06/22 13:49:36;;;;;;;2.57;2.03;;;;;;;28.51;42.76;97552.75;8284090;28;20430;-65
2021/06/22 13:53:42;;;;;;;4.53;2.53;;;;;;;28.54;42.85;97547.09;8284242;28;20549;-65
2021/06/22 13:57:45;;;;;;;3.23;2.63;;;;;;;28.72;42.92;97546.59;8284075;28;20203;-65
2021/06/22 14:01:48;;;;;;;5.70;2.30;;;;;;;28.30;42.59;97532.31;8284091;28;20269;-65
2021/06/22 14:05:52;;;;;;;3.47;2.50;;;;;;;28.14;42.74;97522.75;8315555;28;20234;-65
2021/06/22 14:09:55;;;;;;;3.60;2.30;;;;;;;27.68;44.56;97536.34;8316261;28;20233;-65
2021/06/22 14:13:58;;;;;;;5.83;2.70;;;;;;;27.80;44.37;97540.19;8316111;28;20385;-60
2021/06/22 14:18:03;;;;;;;10.53;3.17;;;;;;;27.85;45.42;97542.25;8316035;28;20258;-60
2021/06/22 14:22:07;;;;;;;9.07;2.70;;;;;;;27.66;45.97;97547.19;8316094;28;20232;-62
2021/06/22 14:26:10;;;;;;;6.03;2.63;;;;;;;27.39;46.23;97567.28;8316324;28;20204;-62
2021/06/22 14:30:15;;;;;;;4.47;2.50;;;;;;;27.42;46.42;97553.63;8316468;28;20203;-61
2021/06/22 14:34:19;;;;;;;27.30;8.13;;;;;;;27.74;44.75;97554.25;8307592;28;20429;-62
2021/06/22 14:38:23;;;;;;;45.77;15.10;;;;;;;27.57;46.11;97558.09;8298827;28;20200;-62
2021/06/22 14:42:26;;;;;;;41.33;14.27;;;;;;;27.55;45.96;97557.47;8298790;28;20563;-62
2021/06/22 14:46:29;;;;;;;6.50;2.70;;;;;;;27.22;47.41;97557.84;8291524;28;20507;-62
2021/06/22 14:50:34;;;;;;;3.90;2.13;;;;;;;27.02;47.65;97558.38;8294526;28;20200;-60
2021/06/22 14:54:39;;;;;;;6.90;2.53;;;;;;;27.55;46.56;97571.59;8294572;28;20288;-60
2021/06/22 14:58:41;;;;;;;10.63;2.80;;;;;;;27.45;45.83;97568.38;8282802;28;20209;-60
2021/06/22 15:02:45;;;;;;;3.43;2.57;;;;;;;27.47;46.29;97564.56;8288671;28;20250;-61
2021/06/22 15:06:47;;;;;;;5.43;2.37;;;;;;;27.52;46.41;97564.00;8298270;28;20213;-60
2021/06/22 15:10:53;;;;;;;4.07;2.40;;;;;;;27.28;46.81;97573.06;8312477;28;20301;-60
2021/06/22 15:14:55;;;;;;;4.77;2.20;;;;;;;27.15;47.63;97552.44;8282829;28;20516;-62
2021/06/22 15:18:58;;;;;;;3.13;2.20;;;;;;;27.23;46.95;97555.00;8336785;28;20203;-61
2021/06/22 15:23:01;;;;;;;5.50;2.30;;;;;;;27.25;46.17;97560.16;8316684;28;20235;-61
2021/06/22 15:27:06;;;;;;;3.63;2.30;;;;;;;27.18;45.92;97568.00;8347444;28;20200;-66
2021/06/22 15:31:09;;;;;;;2.73;2.17;;;;;;;27.08;46.96;97564.81;8322022;28;20197;-66
2021/06/22 15:35:13;;;;;;;3.33;2.17;;;;;;;27.14;47.33;97572.03;8314968;28;20204;-67
2021/06/22 15:39:16;;;;;;;2.80;2.10;;;;;;;27.22;46.51;97577.25;8289129;28;20393;-66
2021/06/22 15:43:20;;;;;;;2.80;1.90;;;;;;;27.26;47.04;97585.72;8282410;28;20399;-65
2021/06/22 15:47:23;;;;;;;4.43;2.10;;;;;;;27.10;48.29;97589.38;8282155;28;20202;-66
2021/06/22 15:51:29;;;;;;;5.70;2.27;;;;;;;27.04;48.07;97595.41;8281988;28;20214;-67
2021/06/22 15:55:32;;;;;;;3.60;2.27;;;;;;;26.95;48.70;97584.03;8282611;28;20365;-66
2021/06/22 15:59:36;;;;;;;5.37;2.40;;;;;;;27.12;47.79;97579.38;8287515;28;20202;-66
2021/06/22 16:03:39;;;;;;;3.63;2.43;;;;;;;26.65;49.36;97591.94;8300978;28;20411;-66
2021/06/22 16:07:44;;;;;;;3.77;2.43;;;;;;;26.45;49.73;97598.72;8319227;28;20232;-66
2021/06/22 16:11:48;;;;;;;2.47;2.17;;;;;;;26.57;49.73;97615.88;8316092;28;20347;-64
2021/06/22 16:15:52;;;;;;;5.50;2.40;;;;;;;26.41;50.17;97621.31;8306216;28;20400;-63
2021/06/22 16:19:55;;;;;;;5.70;2.20;;;;;;;26.21;50.45;97620.94;8288960;28;20213;-63
2021/06/22 16:24:00;;;;;;;2.90;2.30;;;;;;;26.04;50.79;97622.88;8318813;28;20542;-63
2021/06/22 16:28:05;;;;;;;4.00;2.37;;;;;;;26.06;50.76;97623.53;8319238;28;20509;-63
2021/06/22 16:32:09;;;;;;;10.13;2.50;;;;;;;25.57;51.62;97629.88;8318734;28;20220;-63
2021/06/22 16:36:12;;;;;;;2.60;2.20;;;;;;;25.82;51.48;97621.81;8318892;28;20408;-63
2021/06/22 16:40:15;;;;;;;4.03;2.27;;;;;;;25.81;51.33;97647.47;8318342;28;20214;-63
2021/06/22 16:44:18;;;;;;;5.70;2.90;;;;;;;25.31;52.79;97654.78;8317597;28;20258;-63
2021/06/22 16:48:22;;;;;;;5.80;3.30;;;;;;;24.73;55.33;97650.47;8292025;28;20198;-63
2021/06/22 16:52:25;;;;;;;5.17;2.70;;;;;;;24.10;57.68;97651.84;8285226;28;20213;-69
2021/06/22 16:56:28;;;;;;;5.77;2.40;;;;;;;23.23;59.96;97655.41;8286723;28;20226;-63
2021/06/22 17:00:32;;;;;;;1.90;1.20;;;;;;;23.16;57.00;97643.81;8313405;28;20452;-64
2021/06/22 17:04:37;;;;;;;3.33;1.10;;;;;;;23.43;55.34;97666.59;8317119;28;20225;-63
2021/06/22 17:08:39;;;;;;;3.77;0.97;;;;;;;23.23;54.90;97662.53;8316379;28;20236;-63
2021/06/22 17:12:42;;;;;;;3.13;1.00;;;;;;;23.29;54.75;97661.06;8316378;28;20232;-63
2021/06/22 17:16:45;;;;;;;2.57;1.60;;;;;;;23.69;56.30;97667.56;8315649;28;20267;-62
2021/06/22 17:20:51;;;;;;;4.07;2.40;;;;;;;23.93;58.21;97680.91;8316823;28;20389;-63
2021/06/22 17:24:54;;;;;;;6.43;3.10;;;;;;;24.07;60.05;97674.19;8317277;28;20224;-63
2021/06/22 17:28:56;;;;;;;7.53;4.07;;;;;;;24.07;60.84;97687.41;8317166;28;20201;-63
2021/06/22 17:33:00;;;;;;;5.80;4.37;;;;;;;24.06;61.00;97677.81;8316922;28;20212;-63
2021/06/22 17:37:05;;;;;;;5.93;4.10;;;;;;;24.14;61.42;97687.56;8316644;28;20208;-63
2021/06/22 17:41:08;;;;;;;6.73;3.40;;;;;;;24.24;61.26;97690.06;8316843;28;20216;-63
2021/06/22 17:45:12;;;;;;;6.07;3.57;;;;;;;23.95;60.86;97697.44;8316541;28;20225;-63
2021/06/22 17:49:15;;;;;;;7.13;3.63;;;;;;;23.96;60.78;97699.09;8315456;28;20216;-63
2021/06/22 17:53:19;;;;;;;3.53;3.17;;;;;;;24.09;61.67;97703.13;8315259;28;20300;-62
2021/06/22 17:57:22;;;;;;;4.73;3.13;;;;;;;23.93;61.43;97707.38;8314926;28;20202;-63
2021/06/22 18:01:26;;;;;;;2.97;2.60;;;;;;;23.97;60.66;97710.50;8315183;28;20205;-63
2021/06/22 18:05:29;;;;;;;8.70;2.30;;;;;;;24.02;60.33;97715.31;8315060;28;20236;-63
2021/06/22 18:09:34;;;;;;;7.27;2.40;;;;;;;23.85;60.96;97712.59;8315616;28;20319;-63
2021/06/22 18:13:37;;;;;;;4.33;2.00;;;;;;;23.77;59.63;97717.81;8314299;28;20247;-63
2021/06/22 18:17:40;;;;;;;2.37;1.80;;;;;;;23.66;59.89;97716.25;8283029;28;20202;-62
2021/06/22 18:21:43;;;;;;;2.93;1.70;;;;;;;23.54;59.37;97723.63;8281969;28;20500;-63
2021/06/22 18:25:47;;;;;;;3.33;1.97;;;;;;;23.49;59.22;97739.13;8282466;28;20236;-63
2021/06/22 18:29:50;;;;;;;3.70;2.00;;;;;;;23.48;59.81;97742.75;8282675;28;20210;-62
2021/06/22 18:33:53;;;;;;;2.70;2.23;;;;;;;23.43;60.77;97755.59;8282425;28;20228;-62
2021/06/22 18:37:56;;;;;;;2.70;2.27;;;;;;;23.23;61.53;97754.97;8310330;28;20197;-63
2021/06/22 18:42:00;;;;;;;2.93;2.50;;;;;;;23.23;61.92;97753.16;8315025;28;20212;-63
2021/06/22 18:46:05;;;;;;;5.87;2.83;;;;;;;23.10;62.31;97767.75;8314658;28;20207;-62
2021/06/22 18:50:09;;;;;;;3.47;2.60;;;;;;;23.18;62.29;97776.53;8314884;28;20224;-63
2021/06/22 18:54:12;;;;;;;3.30;2.57;;;;;;;23.25;62.33;97771.50;8314624;28;20398;-62
2021/06/22 18:58:16;;;;;;;6.70;2.70;;;;;;;23.14;62.48;97782.31;8310267;28;20193;-63
2021/06/22 19:02:19;;;;;;;10.87;3.30;;;;;;;23.06;63.08;97780.41;8298048;28;20341;-63
2021/06/22 19:06:24;;;;;;;3.63;2.80;;;;;;;23.18;62.69;97786.28;8296960;28;20229;-63
2021/06/22 19:10:28;;;;;;;7.10;3.20;;;;;;;23.17;62.86;97785.47;8297442;28;20300;-63
2021/06/22 19:14:33;;;;;;;5.03;3.33;;;;;;;23.04;63.32;97785.03;8297218;28;20201;-64
2021/06/22 19:18:36;;;;;;;5.97;3.37;;;;;;;23.12;63.39;97794.81;8295800;28;20540;-64
2021/06/22 19:22:39;;;;;;;5.33;3.53;;;;;;;23.01;63.55;97795.84;8297017;28;20222;-63
2021/06/22 19:26:45;;;;;;;6.77;3.73;;;;;;;23.07;63.75;97797.91;8313384;28;20374;-64
2021/06/22 19:30:52;;;;;;;5.30;3.50;;;;;;;23.10;63.41;97802.91;8313145;28;20201;-64